• Join FlightAware (Why Join?)
  • Login
  • US Flag 
09:48PM EDT


 

Airport Tracker/Info


-or-


 

Live Flight TrackerFlight Track Log ✈ UCA3597 ✈ 22-Sep-2013 ✈ KBGM - KIAD

Flight Track Log - Related Links

Times and Time Zones

All times are in EDT time to prevent confusion due to time zone crossing. See the UCA3597 flight status page for this flight to view local times or setup timezone preferences in your user account.

Time Position Orientation Groundspeed Altitude Reporting Facility
EDT Latitude Longitude Course Direction KTS MPH feet Rate Location/Type
07:26PM 42.1883 -76.0689 211° Southwest 151 174 5,100  Level New York Center
07:27PM 42.1386 -76.1097 211° Southwest 184 212 6,100 960 Climbing New York Center
07:28PM 42.0844 -76.1556 212° Southwest 217 250 7,100 900 Climbing New York Center
07:29PM 42.0281 -76.2039 212° Southwest 231 266 8,000 960 Climbing New York Center
07:30PM 41.9739 -76.2525 214° Southwest 242 278 9,100 960 Climbing New York Center
07:31PM 41.8338 -76.1577 211° Southwest  Level Estimated
07:31PM 41.9222 -76.2900 208° Southwest 242 278 10,000  Level New York Center
07:32PM 41.8681 -76.3358 212° Southwest 242 278 10,900 960 Climbing New York Center
07:33PM 41.8072 -76.3892 213° Southwest 242 278 12,000 1,140 Climbing New York Center
07:34PM 41.7508 -76.4344 211° Southwest 242 278 13,200 1,080 Climbing New York Center
07:35PM 41.7053 -76.4750 214° Southwest 242 278 14,200 960 Climbing New York Center
07:36PM 41.6489 -76.5172 209° Southwest 242 278 15,200 900 Climbing New York Center
07:37PM 41.5903 -76.5706 214° Southwest 242 278 16,000 360 Climbing New York Center
07:38PM 41.5272 -76.6206 211° Southwest 249 287 16,000  Level New York Center
07:39PM 41.4642 -76.6731 212° Southwest 261 300 16,000  Level New York Center
07:40PM 41.4053 -76.7261 214° Southwest 275 316 16,000  Level New York Center
07:41PM 41.3381 -76.7808 211° Southwest 286 329 16,000  Level New York Center
07:42PM 41.2603 -76.7961 188° South 280 322 16,000  Level New York Center
07:43PM 41.1822 -76.8114 188° South 280 322 16,000  Level New York Center
07:44PM 41.1044 -76.8264 188° South 285 328 16,000  Level New York Center
07:45PM 41.0267 -76.8386 187° South 285 328 16,000  Level New York Center
07:46PM 40.9486 -76.8564 190° South 285 328 16,000  Level New York Center
07:47PM 40.8647 -76.8708 187° South 285 328 16,000  Level New York Center
07:48PM 40.7931 -76.8864 189° South 285 328 16,000  Level New York Center
07:49PM 40.7083 -76.9089 191° South 279 321 16,100  Climbing New York Center
07:50PM 40.6406 -76.9331 195° South 284 327 16,100  Level New York Center
07:51PM 40.5578 -76.9583 193° South 284 327 16,100  Level New York Center
07:52PM 40.4900 -76.9797 193° South 284 327 16,100 -360 Level New York Center
07:54PM 40.3333 -77.0333 195° South 296 341 15,100 -660 Descending Potomac TRACON
07:55PM 40.2667 -77.0500 191° South 294 338 14,400 -780 Descending Potomac TRACON
07:56PM 40.1833 -77.0667 189° South 289 333 13,600 -780 Descending Potomac TRACON
07:57PM 40.1000 -77.1000 197° South 287 330 12,900 -960 Descending Potomac TRACON
07:58PM 40.0333 -77.1000 180° South 300 345 11,700 -1,020 Descending Potomac TRACON
07:59PM 39.9500 -77.0833 171° South 287 330 10,900 -1,020 Descending Potomac TRACON
08:00PM 39.8667 -77.0500 163° South 286 329 9,700 -1,020 Descending Potomac TRACON
08:01PM 39.8000 -77.0833 201° Southwest 267 307 8,900 -780 Descending Potomac TRACON
08:02PM 39.7500 -77.1500 226° Southwest 264 304 8,200 -720 Descending Potomac TRACON
08:03PM 39.7000 -77.2000 218° Southwest 262 302 7,600 -660 Descending Potomac TRACON
08:04PM 39.6667 -77.2833 243° Southwest 256 295 7,000 -300 Descending Potomac TRACON
08:05PM 39.6167 -77.3333 218° Southwest 260 299 7,000  Level Potomac TRACON
08:06PM 39.5333 -77.3500 189° South 262 302 7,000  Level Potomac TRACON
08:07PM 39.4667 -77.3500 180° South 261 300 7,000 -60 Level Potomac TRACON
08:08PM 39.3833 -77.3667 189° South 260 299 6,900 -600 Descending Potomac TRACON
08:09PM 39.3167 -77.3667 180° South 248 285 5,800 -1,080 Descending Potomac TRACON
08:10PM 39.2500 -77.3667 180° South 254 292 4,800 -900 Descending Potomac TRACON
08:11PM 39.1833 -77.3667 180° South 258 297 4,100 -480 Descending Potomac TRACON
08:12PM 39.1167 -77.3667 180° South 259 298 4,000 -60 Descending Potomac TRACON
08:13PM 39.0333 -77.3667 180° South 262 302 4,000  Level Potomac TRACON
08:14PM 38.9667 -77.3500 169° South 247 284 4,000 -300 Level Potomac TRACON
08:15PM 38.9000 -77.3500 180° South 234 269 3,500 -540 Descending Potomac TRACON
08:16PM 38.8333 -77.3667 191° South 219 252 3,000 -300 Descending Potomac TRACON
08:17PM 38.7833 -77.3667 180° South 221 254 3,000 -420 Level Potomac TRACON
08:18PM 38.7500 -77.4000 218° Southwest 214 246 2,200 -540 Descending Potomac TRACON
08:19PM 38.7833 -77.4333 322° Northwest 170 196 2,000 -120 Descending Potomac TRACON
08:20PM 38.8167 -77.4333 360° North 165 190 2,000 -240 Level Potomac TRACON
08:21PM 38.8500 -77.4333 360° North 144 166 1,600 -540 Descending Potomac TRACON
08:22PM 38.8833 -77.4333 360° North 104 120 1,000 -600 Descending Potomac TRACON
08:24PM 38.9333 -77.4500 349° North  Level FlightAware Approximate
08:31PM 38.9474 -77.4599 349° North  Level Estimated
08:32PM 38.9474 -77.4599 349° North  Level Estimated